CYQY

Sydney / J.A. Douglas McCurdy Airport

Sydney, Nova Scotia, Canada
METAR CYQY 162200Z 02003KT 350V080 15SM FEW004 SCT026 BKN130 BKN240 19/18 A2993 RMK SF2SC1AS3CS1 SLP138 DENSITY ALT 800FT
Observed Flight Rules
Jul-16 @ 22:00 UTC (17 minutes ago) Visual Flight Rules
Wind Visibility Clouds
20° at 3 knots 15 miles
  • Few at 400' AGL
  • Scattered at 2,600' AGL
  • Broken at 13,000' AGL
  • Broken at 24,000' AGL
Temperatures Readings
Current 19°C / 66°F
Dewpoint 18°C / 64°F
Humidity 94%
Altimeter 29.93" Hg
Pressure 1013.8 hPa
Elevation 62
METAR CYQY 162200Z 02003KT 350V080 15SM FEW004 SCT026 BKN130 BKN240 19/18 A2993 RMK SF2SC1AS3CS1 SLP138 DENSITY ALT 800FT
Observed Flight Rules
Jul-16 @ 22:00 UTC
(17 minutes ago)
VFR
Wind Visibility
20° at 3 knots 15 miles
Clouds
  • Few at 400' AGL
  • Scattered at 2,600' AGL
  • Broken at 13,000' AGL
  • Broken at 24,000' AGL
Temperature Dewpoint
19°C / 66°F 18°C / 64°F
Humidity Altimeter Pressure
94% 29.93" Hg 1013.8 hPa